HTZA/ZNZ METAR and TAF weather

Enter ICAO airport designator
Station Type Date Time Source
HTZA METAR 2018/07/19 06:00 UTC NOAA

HTZA 190600Z 20012KT 9999 FEW016 25/20 Q1020 NOSIG


Station Type Date Time Source
HTZA Decoded METAR 2018/07/19 06:00 UTC NOAA

Zanzibar / Kisauni, Tanzania (HTZA) 06-13S 039-13E 15M
Jul 19, 2018 - 02:00 AM EDT / 2018.07.19 0600 UTC
Wind: from the SSW (200 degrees) at 14 MPH (12 KT):0
Visibility: greater than 7 mile(s):0
Sky conditions: mostly clear
Temperature: 77 F (25 C)
Dew Point: 68 F (20 C)
Relative Humidity: 73%
Pressure (altimeter): 30.12 in. Hg (1020 hPa)
ob: HTZA 190600Z 20012KT 9999 FEW016 25/20 Q1020 NOSIG
cycle: 6

Station Type Date Time Source
HTZA TAF 2018/07/19 06:57 UTC NOAA

TAF HTZA 190500Z 1906/2006 21015KT 9999 SCT018
BECMG 1910/1912 15015KT FEW022
BECMG 1918/1920 15010KT CAVOK


Example: see airport list